sensor_id;sensor_type;location;lat;lon;timestamp;P1;durP1;ratioP1;P2;durP2;ratioP2
3259;SDS011;22469;48.150;14.004;2022-08-02T00:00:37;8.53;;;5.87;;
3259;SDS011;22469;48.150;14.004;2022-08-02T00:03:04;7.13;;;6.57;;
3259;SDS011;22469;48.150;14.004;2022-08-02T00:05:31;6.37;;;5.90;;
3259;SDS011;22469;48.150;14.004;2022-08-02T00:07:58;6.60;;;5.50;;
3259;SDS011;22469;48.150;14.004;2022-08-02T00:10:26;6.93;;;6.00;;
3259;SDS011;22469;48.150;14.004;2022-08-02T00:12:53;6.13;;;5.80;;
3259;SDS011;22469;48.150;14.004;2022-08-02T00:15:20;6.77;;;6.17;;
3259;SDS011;22469;48.150;14.004;2022-08-02T00:17:47;6.93;;;6.23;;
3259;SDS011;22469;48.150;14.004;2022-08-02T00:20:15;7.70;;;7.20;;
3259;SDS011;22469;48.150;14.004;2022-08-02T00:22:42;6.70;;;6.20;;
3259;SDS011;22469;48.150;14.004;2022-08-02T00:25:09;7.00;;;6.40;;
3259;SDS011;22469;48.150;14.004;2022-08-02T00:27:37;7.30;;;6.70;;
3259;SDS011;22469;48.150;14.004;2022-08-02T00:30:04;6.23;;;5.70;;
3259;SDS011;22469;48.150;14.004;2022-08-02T00:32:32;7.03;;;6.43;;
3259;SDS011;22469;48.150;14.004;2022-08-02T00:34:58;6.53;;;6.07;;
3259;SDS011;22469;48.150;14.004;2022-08-02T00:37:26;7.10;;;6.50;;
3259;SDS011;22469;48.150;14.004;2022-08-02T00:39:52;7.63;;;7.03;;
3259;SDS011;22469;48.150;14.004;2022-08-02T00:42:20;8.53;;;6.80;;
3259;SDS011;22469;48.150;14.004;2022-08-02T00:44:47;7.20;;;6.70;;
3259;SDS011;22469;48.150;14.004;2022-08-02T00:47:14;6.67;;;5.97;;
3259;SDS011;22469;48.150;14.004;2022-08-02T00:49:45;6.93;;;6.43;;
3259;SDS011;22469;48.150;14.004;2022-08-02T00:52:13;6.90;;;6.20;;
3259;SDS011;22469;48.150;14.004;2022-08-02T00:54:40;7.20;;;6.63;;
3259;SDS011;22469;48.150;14.004;2022-08-02T00:57:08;7.13;;;6.50;;
3259;SDS011;22469;48.150;14.004;2022-08-02T00:59:35;6.50;;;6.00;;
3259;SDS011;22469;48.150;14.004;2022-08-02T01:02:02;6.30;;;5.70;;
3259;SDS011;22469;48.150;14.004;2022-08-02T01:04:30;8.30;;;7.70;;
3259;SDS011;22469;48.150;14.004;2022-08-02T01:07:01;6.47;;;5.97;;
3259;SDS011;22469;48.150;14.004;2022-08-02T01:09:40;6.40;;;5.90;;
3259;SDS011;22469;48.150;14.004;2022-08-02T01:12:08;7.50;;;7.00;;
3259;SDS011;22469;48.150;14.004;2022-08-02T01:14:36;7.13;;;6.53;;
3259;SDS011;22469;48.150;14.004;2022-08-02T01:17:15;6.90;;;6.30;;
3259;SDS011;22469;48.150;14.004;2022-08-02T01:29:23;6.23;;;5.83;;
3259;SDS011;22469;48.150;14.004;2022-08-02T01:32:02;6.40;;;6.00;;
3259;SDS011;22469;48.150;14.004;2022-08-02T01:37:56;6.60;;;6.13;;
3259;SDS011;22469;48.150;14.004;2022-08-02T01:40:30;7.63;;;7.03;;
3259;SDS011;22469;48.150;14.004;2022-08-02T01:43:01;6.60;;;5.97;;
3259;SDS011;22469;48.150;14.004;2022-08-02T01:45:32;7.27;;;6.57;;
3259;SDS011;22469;48.150;14.004;2022-08-02T01:48:01;6.40;;;6.00;;
3259;SDS011;22469;48.150;14.004;2022-08-02T01:50:31;7.10;;;6.57;;
3259;SDS011;22469;48.150;14.004;2022-08-02T01:53:09;6.60;;;6.20;;
3259;SDS011;22469;48.150;14.004;2022-08-02T01:55:42;7.13;;;6.40;;
3259;SDS011;22469;48.150;14.004;2022-08-02T01:58:26;6.13;;;5.63;;
3259;SDS011;22469;48.150;14.004;2022-08-02T02:00:57;7.33;;;6.73;;
3259;SDS011;22469;48.150;14.004;2022-08-02T02:03:26;8.03;;;7.30;;
3259;SDS011;22469;48.150;14.004;2022-08-02T02:05:56;7.23;;;6.63;;
3259;SDS011;22469;48.150;14.004;2022-08-02T02:08:29;7.70;;;7.13;;
3259;SDS011;22469;48.150;14.004;2022-08-02T02:11:01;7.50;;;6.90;;
3259;SDS011;22469;48.150;14.004;2022-08-02T02:13:49;6.87;;;6.37;;
3259;SDS011;22469;48.150;14.004;2022-08-02T02:16:18;7.37;;;6.77;;
3259;SDS011;22469;48.150;14.004;2022-08-02T02:18:48;7.60;;;6.90;;
3259;SDS011;22469;48.150;14.004;2022-08-02T02:21:18;8.83;;;6.63;;
3259;SDS011;22469;48.150;14.004;2022-08-02T02:23:46;6.70;;;6.27;;
3259;SDS011;22469;48.150;14.004;2022-08-02T02:26:16;7.07;;;6.50;;
3259;SDS011;22469;48.150;14.004;2022-08-02T02:28:58;6.77;;;6.37;;
3259;SDS011;22469;48.150;14.004;2022-08-02T02:31:31;7.57;;;6.97;;
3259;SDS011;22469;48.150;14.004;2022-08-02T02:36:51;7.50;;;6.90;;
3259;SDS011;22469;48.150;14.004;2022-08-02T02:39:20;7.50;;;6.80;;
3259;SDS011;22469;48.150;14.004;2022-08-02T02:41:49;7.90;;;6.47;;
3259;SDS011;22469;48.150;14.004;2022-08-02T02:44:19;6.67;;;6.17;;
3259;SDS011;22469;48.150;14.004;2022-08-02T02:46:51;8.37;;;7.70;;
3259;SDS011;22469;48.150;14.004;2022-08-02T02:49:21;6.80;;;6.30;;
3259;SDS011;22469;48.150;14.004;2022-08-02T02:51:50;9.60;;;7.90;;
3259;SDS011;22469;48.150;14.004;2022-08-02T02:54:18;7.20;;;6.80;;
3259;SDS011;22469;48.150;14.004;2022-08-02T02:57:00;7.07;;;6.57;;
3259;SDS011;22469;48.150;14.004;2022-08-02T02:59:31;7.77;;;7.07;;
3259;SDS011;22469;48.150;14.004;2022-08-02T03:02:00;7.80;;;7.10;;
3259;SDS011;22469;48.150;14.004;2022-08-02T03:04:29;8.10;;;7.30;;
3259;SDS011;22469;48.150;14.004;2022-08-02T03:07:17;6.83;;;6.27;;
3259;SDS011;22469;48.150;14.004;2022-08-02T03:09:45;7.70;;;7.10;;
3259;SDS011;22469;48.150;14.004;2022-08-02T03:12:19;7.50;;;6.80;;
3259;SDS011;22469;48.150;14.004;2022-08-02T03:14:59;9.23;;;6.63;;
3259;SDS011;22469;48.150;14.004;2022-08-02T03:17:40;8.17;;;7.27;;
3259;SDS011;22469;48.150;14.004;2022-08-02T03:20:11;6.73;;;6.23;;
3259;SDS011;22469;48.150;14.004;2022-08-02T03:22:44;6.87;;;6.23;;
3259;SDS011;22469;48.150;14.004;2022-08-02T03:25:13;7.23;;;6.73;;
3259;SDS011;22469;48.150;14.004;2022-08-02T03:27:42;7.10;;;6.60;;
3259;SDS011;22469;48.150;14.004;2022-08-02T03:30:11;9.77;;;6.80;;
3259;SDS011;22469;48.150;14.004;2022-08-02T03:32:40;8.60;;;7.33;;
3259;SDS011;22469;48.150;14.004;2022-08-02T03:35:13;7.23;;;6.60;;
3259;SDS011;22469;48.150;14.004;2022-08-02T03:37:49;7.40;;;6.70;;
3259;SDS011;22469;48.150;14.004;2022-08-02T03:40:18;7.67;;;7.17;;
3259;SDS011;22469;48.150;14.004;2022-08-02T03:42:47;7.07;;;6.47;;
3259;SDS011;22469;48.150;14.004;2022-08-02T03:45:15;7.33;;;6.73;;
3259;SDS011;22469;48.150;14.004;2022-08-02T03:47:44;7.03;;;6.63;;
3259;SDS011;22469;48.150;14.004;2022-08-02T03:50:12;8.70;;;7.20;;
3259;SDS011;22469;48.150;14.004;2022-08-02T03:52:40;7.10;;;6.70;;
3259;SDS011;22469;48.150;14.004;2022-08-02T03:55:08;8.30;;;7.70;;
3259;SDS011;22469;48.150;14.004;2022-08-02T03:57:38;7.83;;;6.90;;
3259;SDS011;22469;48.150;14.004;2022-08-02T04:00:07;7.90;;;7.37;;
3259;SDS011;22469;48.150;14.004;2022-08-02T04:02:41;7.67;;;6.97;;
3259;SDS011;22469;48.150;14.004;2022-08-02T04:05:08;7.40;;;6.90;;
3259;SDS011;22469;48.150;14.004;2022-08-02T04:07:36;6.63;;;6.23;;
3259;SDS011;22469;48.150;14.004;2022-08-02T04:10:24;7.33;;;6.83;;
3259;SDS011;22469;48.150;14.004;2022-08-02T04:12:52;8.83;;;7.13;;
3259;SDS011;22469;48.150;14.004;2022-08-02T04:15:21;5.90;;;5.20;;
3259;SDS011;22469;48.150;14.004;2022-08-02T04:17:52;5.27;;;4.77;;
3259;SDS011;22469;48.150;14.004;2022-08-02T04:20:29;5.13;;;4.40;;
3259;SDS011;22469;48.150;14.004;2022-08-02T04:23:06;4.90;;;4.50;;
3259;SDS011;22469;48.150;14.004;2022-08-02T04:25:35;5.13;;;4.80;;
3259;SDS011;22469;48.150;14.004;2022-08-02T04:28:06;4.30;;;4.00;;
3259;SDS011;22469;48.150;14.004;2022-08-02T04:30:43;5.03;;;4.37;;
3259;SDS011;22469;48.150;14.004;2022-08-02T04:33:12;4.87;;;4.57;;
3259;SDS011;22469;48.150;14.004;2022-08-02T04:35:40;4.53;;;4.13;;
3259;SDS011;22469;48.150;14.004;2022-08-02T04:38:07;7.20;;;4.80;;
3259;SDS011;22469;48.150;14.004;2022-08-02T04:40:36;4.73;;;4.40;;
3259;SDS011;22469;48.150;14.004;2022-08-02T04:43:04;4.83;;;4.63;;
3259;SDS011;22469;48.150;14.004;2022-08-02T04:45:31;4.90;;;4.33;;
3259;SDS011;22469;48.150;14.004;2022-08-02T04:47:59;3.77;;;3.67;;
3259;SDS011;22469;48.150;14.004;2022-08-02T04:50:31;4.63;;;4.30;;
3259;SDS011;22469;48.150;14.004;2022-08-02T04:52:59;5.40;;;5.00;;
3259;SDS011;22469;48.150;14.004;2022-08-02T04:55:27;5.00;;;4.60;;
3259;SDS011;22469;48.150;14.004;2022-08-02T04:57:56;4.23;;;4.03;;
3259;SDS011;22469;48.150;14.004;2022-08-02T05:00:24;5.80;;;5.33;;
3259;SDS011;22469;48.150;14.004;2022-08-02T05:02:57;7.67;;;5.43;;
3259;SDS011;22469;48.150;14.004;2022-08-02T05:05:25;5.93;;;5.53;;
3259;SDS011;22469;48.150;14.004;2022-08-02T05:07:53;5.97;;;5.43;;
3259;SDS011;22469;48.150;14.004;2022-08-02T05:10:21;4.30;;;4.00;;
3259;SDS011;22469;48.150;14.004;2022-08-02T05:12:49;4.63;;;4.30;;
3259;SDS011;22469;48.150;14.004;2022-08-02T05:15:16;5.67;;;5.27;;
3259;SDS011;22469;48.150;14.004;2022-08-02T05:17:44;5.90;;;5.33;;
3259;SDS011;22469;48.150;14.004;2022-08-02T05:20:17;5.40;;;5.10;;
3259;SDS011;22469;48.150;14.004;2022-08-02T05:22:45;5.70;;;5.30;;
3259;SDS011;22469;48.150;14.004;2022-08-02T05:25:13;6.03;;;5.53;;
3259;SDS011;22469;48.150;14.004;2022-08-02T05:27:40;6.27;;;5.77;;
3259;SDS011;22469;48.150;14.004;2022-08-02T05:30:08;5.93;;;5.53;;
3259;SDS011;22469;48.150;14.004;2022-08-02T05:32:45;6.17;;;5.17;;
3259;SDS011;22469;48.150;14.004;2022-08-02T05:35:18;5.60;;;5.10;;
3259;SDS011;22469;48.150;14.004;2022-08-02T05:37:50;6.23;;;5.57;;
3259;SDS011;22469;48.150;14.004;2022-08-02T05:40:18;5.97;;;5.50;;
3259;SDS011;22469;48.150;14.004;2022-08-02T05:42:51;5.30;;;4.90;;
3259;SDS011;22469;48.150;14.004;2022-08-02T05:45:19;5.03;;;4.63;;
3259;SDS011;22469;48.150;14.004;2022-08-02T05:47:47;5.10;;;4.70;;
3259;SDS011;22469;48.150;14.004;2022-08-02T05:50:14;5.90;;;5.50;;
3259;SDS011;22469;48.150;14.004;2022-08-02T05:52:45;6.23;;;5.10;;
3259;SDS011;22469;48.150;14.004;2022-08-02T05:55:21;5.63;;;5.23;;
3259;SDS011;22469;48.150;14.004;2022-08-02T06:00:49;6.37;;;5.73;;
3259;SDS011;22469;48.150;14.004;2022-08-02T06:03:25;5.40;;;5.00;;
3259;SDS011;22469;48.150;14.004;2022-08-02T06:06:04;5.40;;;5.00;;
3259;SDS011;22469;48.150;14.004;2022-08-02T06:08:41;5.20;;;4.80;;
3259;SDS011;22469;48.150;14.004;2022-08-02T06:11:16;6.23;;;5.37;;
3259;SDS011;22469;48.150;14.004;2022-08-02T06:13:49;5.63;;;5.23;;
3259;SDS011;22469;48.150;14.004;2022-08-02T06:16:18;3.90;;;3.60;;
3259;SDS011;22469;48.150;14.004;2022-08-02T06:18:58;4.90;;;4.60;;
3259;SDS011;22469;48.150;14.004;2022-08-02T06:21:26;4.23;;;3.90;;
3259;SDS011;22469;48.150;14.004;2022-08-02T06:24:16;3.57;;;3.10;;
3259;SDS011;22469;48.150;14.004;2022-08-02T06:26:45;3.60;;;3.30;;
3259;SDS011;22469;48.150;14.004;2022-08-02T06:29:20;3.20;;;3.00;;
3259;SDS011;22469;48.150;14.004;2022-08-02T06:31:50;3.17;;;2.90;;
3259;SDS011;22469;48.150;14.004;2022-08-02T06:34:19;3.00;;;2.80;;
3259;SDS011;22469;48.150;14.004;2022-08-02T06:37:01;4.20;;;2.60;;
3259;SDS011;22469;48.150;14.004;2022-08-02T06:39:44;4.50;;;2.53;;
3259;SDS011;22469;48.150;14.004;2022-08-02T06:42:20;5.10;;;2.80;;
3259;SDS011;22469;48.150;14.004;2022-08-02T06:44:58;2.37;;;2.27;;
3259;SDS011;22469;48.150;14.004;2022-08-02T06:47:25;3.70;;;3.13;;
3259;SDS011;22469;48.150;14.004;2022-08-02T06:49:53;2.57;;;2.47;;
3259;SDS011;22469;48.150;14.004;2022-08-02T06:52:23;2.53;;;2.43;;
3259;SDS011;22469;48.150;14.004;2022-08-02T06:54:55;3.23;;;3.00;;
3259;SDS011;22469;48.150;14.004;2022-08-02T06:57:27;3.20;;;3.00;;
3259;SDS011;22469;48.150;14.004;2022-08-02T06:59:56;3.33;;;3.03;;
3259;SDS011;22469;48.150;14.004;2022-08-02T07:02:23;2.70;;;2.60;;
3259;SDS011;22469;48.150;14.004;2022-08-02T07:04:51;2.83;;;2.73;;
3259;SDS011;22469;48.150;14.004;2022-08-02T07:07:18;2.83;;;2.73;;
3259;SDS011;22469;48.150;14.004;2022-08-02T07:09:45;2.93;;;2.83;;
3259;SDS011;22469;48.150;14.004;2022-08-02T07:12:26;2.90;;;2.80;;
3259;SDS011;22469;48.150;14.004;2022-08-02T07:14:56;4.50;;;2.57;;
3259;SDS011;22469;48.150;14.004;2022-08-02T07:17:25;5.40;;;3.70;;
3259;SDS011;22469;48.150;14.004;2022-08-02T07:19:53;2.60;;;2.50;;
3259;SDS011;22469;48.150;14.004;2022-08-02T07:22:21;3.33;;;3.03;;
3259;SDS011;22469;48.150;14.004;2022-08-02T07:24:50;2.70;;;2.50;;
3259;SDS011;22469;48.150;14.004;2022-08-02T07:27:17;3.13;;;2.93;;
3259;SDS011;22469;48.150;14.004;2022-08-02T07:29:45;2.97;;;2.77;;
3259;SDS011;22469;48.150;14.004;2022-08-02T07:32:13;4.00;;;3.70;;
3259;SDS011;22469;48.150;14.004;2022-08-02T07:34:45;3.30;;;3.10;;
3259;SDS011;22469;48.150;14.004;2022-08-02T07:37:19;3.50;;;3.20;;
3259;SDS011;22469;48.150;14.004;2022-08-02T07:40:15;3.93;;;3.57;;
3259;SDS011;22469;48.150;14.004;2022-08-02T07:42:46;3.97;;;3.67;;
3259;SDS011;22469;48.150;14.004;2022-08-02T07:45:18;5.77;;;3.30;;
3259;SDS011;22469;48.150;14.004;2022-08-02T07:47:48;3.10;;;2.93;;
3259;SDS011;22469;48.150;14.004;2022-08-02T07:50:18;3.67;;;3.47;;
3259;SDS011;22469;48.150;14.004;2022-08-02T07:52:47;4.07;;;3.77;;
3259;SDS011;22469;48.150;14.004;2022-08-02T07:55:22;3.70;;;3.50;;
3259;SDS011;22469;48.150;14.004;2022-08-02T07:58:06;4.20;;;3.53;;
3259;SDS011;22469;48.150;14.004;2022-08-02T08:00:38;3.20;;;3.00;;
3259;SDS011;22469;48.150;14.004;2022-08-02T08:03:07;7.07;;;3.57;;
3259;SDS011;22469;48.150;14.004;2022-08-02T08:05:34;3.30;;;3.10;;
3259;SDS011;22469;48.150;14.004;2022-08-02T08:08:02;3.47;;;3.23;;
3259;SDS011;22469;48.150;14.004;2022-08-02T08:10:29;3.90;;;3.60;;
3259;SDS011;22469;48.150;14.004;2022-08-02T08:12:57;3.70;;;3.50;;
3259;SDS011;22469;48.150;14.004;2022-08-02T08:15:24;3.00;;;2.90;;
3259;SDS011;22469;48.150;14.004;2022-08-02T08:17:51;3.10;;;2.87;;
3259;SDS011;22469;48.150;14.004;2022-08-02T08:20:18;3.00;;;2.80;;
3259;SDS011;22469;48.150;14.004;2022-08-02T08:22:45;2.93;;;2.73;;
3259;SDS011;22469;48.150;14.004;2022-08-02T08:25:13;3.30;;;3.20;;
3259;SDS011;22469;48.150;14.004;2022-08-02T08:27:47;3.67;;;2.47;;
3259;SDS011;22469;48.150;14.004;2022-08-02T08:30:15;2.53;;;2.43;;
3259;SDS011;22469;48.150;14.004;2022-08-02T08:32:42;3.20;;;3.10;;
3259;SDS011;22469;48.150;14.004;2022-08-02T08:35:10;2.70;;;2.60;;
3259;SDS011;22469;48.150;14.004;2022-08-02T08:37:38;3.10;;;3.00;;
3259;SDS011;22469;48.150;14.004;2022-08-02T08:40:08;3.30;;;3.10;;
3259;SDS011;22469;48.150;14.004;2022-08-02T08:42:37;3.00;;;2.70;;
3259;SDS011;22469;48.150;14.004;2022-08-02T08:45:05;2.30;;;2.20;;
3259;SDS011;22469;48.150;14.004;2022-08-02T08:47:38;3.10;;;2.90;;
3259;SDS011;22469;48.150;14.004;2022-08-02T08:50:08;2.87;;;2.77;;
3259;SDS011;22469;48.150;14.004;2022-08-02T08:53:00;2.67;;;2.57;;
3259;SDS011;22469;48.150;14.004;2022-08-02T08:55:29;2.90;;;2.80;;
3259;SDS011;22469;48.150;14.004;2022-08-02T08:57:59;2.83;;;2.73;;
3259;SDS011;22469;48.150;14.004;2022-08-02T09:00:28;2.80;;;2.70;;
3259;SDS011;22469;48.150;14.004;2022-08-02T09:02:58;3.03;;;2.20;;
3259;SDS011;22469;48.150;14.004;2022-08-02T09:05:28;2.43;;;2.33;;
3259;SDS011;22469;48.150;14.004;2022-08-02T09:07:55;2.60;;;2.50;;
3259;SDS011;22469;48.150;14.004;2022-08-02T09:13:14;3.87;;;2.20;;
3259;SDS011;22469;48.150;14.004;2022-08-02T09:16:08;2.17;;;2.07;;
3259;SDS011;22469;48.150;14.004;2022-08-02T09:18:39;2.50;;;2.40;;
3259;SDS011;22469;48.150;14.004;2022-08-02T09:21:12;2.27;;;2.17;;
3259;SDS011;22469;48.150;14.004;2022-08-02T09:23:43;2.43;;;2.23;;
3259;SDS011;22469;48.150;14.004;2022-08-02T09:26:16;2.23;;;2.13;;
3259;SDS011;22469;48.150;14.004;2022-08-02T09:28:49;1.83;;;1.73;;
3259;SDS011;22469;48.150;14.004;2022-08-02T09:31:19;2.00;;;1.90;;
3259;SDS011;22469;48.150;14.004;2022-08-02T09:33:53;2.50;;;2.30;;
3259;SDS011;22469;48.150;14.004;2022-08-02T09:36:26;2.20;;;2.10;;
3259;SDS011;22469;48.150;14.004;2022-08-02T09:39:09;3.90;;;2.00;;
3259;SDS011;22469;48.150;14.004;2022-08-02T09:41:43;2.17;;;2.07;;
3259;SDS011;22469;48.150;14.004;2022-08-02T09:44:12;2.13;;;2.03;;
3259;SDS011;22469;48.150;14.004;2022-08-02T09:46:42;2.70;;;2.50;;
3259;SDS011;22469;48.150;14.004;2022-08-02T09:49:12;2.27;;;2.17;;
3259;SDS011;22469;48.150;14.004;2022-08-02T09:54:20;3.13;;;2.70;;
3259;SDS011;22469;48.150;14.004;2022-08-02T09:56:56;2.67;;;2.57;;
3259;SDS011;22469;48.150;14.004;2022-08-02T09:59:26;2.67;;;2.57;;
3259;SDS011;22469;48.150;14.004;2022-08-02T10:01:55;2.30;;;2.20;;
3259;SDS011;22469;48.150;14.004;2022-08-02T10:04:30;3.03;;;2.83;;
3259;SDS011;22469;48.150;14.004;2022-08-02T10:07:17;2.30;;;2.20;;
3259;SDS011;22469;48.150;14.004;2022-08-02T10:09:47;2.33;;;2.13;;
3259;SDS011;22469;48.150;14.004;2022-08-02T10:12:16;2.50;;;2.40;;
3259;SDS011;22469;48.150;14.004;2022-08-02T10:14:50;2.30;;;2.20;;
3259;SDS011;22469;48.150;14.004;2022-08-02T10:17:18;2.50;;;2.40;;
3259;SDS011;22469;48.150;14.004;2022-08-02T10:19:46;2.00;;;1.90;;
3259;SDS011;22469;48.150;14.004;2022-08-02T10:22:29;2.20;;;2.10;;
3259;SDS011;22469;48.150;14.004;2022-08-02T10:24:59;2.60;;;2.50;;
3259;SDS011;22469;48.150;14.004;2022-08-02T10:27:30;2.73;;;2.50;;
3259;SDS011;22469;48.150;14.004;2022-08-02T10:30:18;2.67;;;2.50;;
3259;SDS011;22469;48.150;14.004;2022-08-02T10:32:49;2.27;;;2.17;;
3259;SDS011;22469;48.150;14.004;2022-08-02T10:35:20;2.83;;;2.73;;
3259;SDS011;22469;48.150;14.004;2022-08-02T10:37:53;2.67;;;2.50;;
3259;SDS011;22469;48.150;14.004;2022-08-02T10:49:01;2.50;;;2.40;;
3259;SDS011;22469;48.150;14.004;2022-08-02T10:54:21;2.30;;;2.20;;
3259;SDS011;22469;48.150;14.004;2022-08-02T10:56:54;2.93;;;2.73;;
3259;SDS011;22469;48.150;14.004;2022-08-02T11:01:54;3.10;;;2.27;;
3259;SDS011;22469;48.150;14.004;2022-08-02T11:04:31;2.30;;;2.20;;
3259;SDS011;22469;48.150;14.004;2022-08-02T11:07:19;2.13;;;2.03;;
3259;SDS011;22469;48.150;14.004;2022-08-02T11:09:58;2.70;;;2.50;;
3259;SDS011;22469;48.150;14.004;2022-08-02T11:13:29;2.20;;;2.10;;
3259;SDS011;22469;48.150;14.004;2022-08-02T11:23:51;2.20;;;2.10;;
3259;SDS011;22469;48.150;14.004;2022-08-02T11:29:01;2.03;;;1.93;;
3259;SDS011;22469;48.150;14.004;2022-08-02T11:31:39;2.57;;;2.40;;
3259;SDS011;22469;48.150;14.004;2022-08-02T11:34:09;2.27;;;2.07;;
3259;SDS011;22469;48.150;14.004;2022-08-02T11:36:57;2.30;;;2.20;;
3259;SDS011;22469;48.150;14.004;2022-08-02T11:39:24;2.10;;;2.00;;
3259;SDS011;22469;48.150;14.004;2022-08-02T11:41:52;2.10;;;1.97;;
3259;SDS011;22469;48.150;14.004;2022-08-02T11:44:25;2.10;;;2.00;;
3259;SDS011;22469;48.150;14.004;2022-08-02T11:47:01;2.00;;;1.90;;
3259;SDS011;22469;48.150;14.004;2022-08-02T11:49:28;2.03;;;1.93;;
3259;SDS011;22469;48.150;14.004;2022-08-02T11:52:01;1.70;;;1.60;;
3259;SDS011;22469;48.150;14.004;2022-08-02T11:54:36;4.40;;;2.87;;
3259;SDS011;22469;48.150;14.004;2022-08-02T11:59:45;1.93;;;1.90;;
3259;SDS011;22469;48.150;14.004;2022-08-02T12:02:18;1.70;;;1.60;;
3259;SDS011;22469;48.150;14.004;2022-08-02T12:05:00;2.00;;;1.90;;
3259;SDS011;22469;48.150;14.004;2022-08-02T12:07:39;2.30;;;2.20;;
3259;SDS011;22469;48.150;14.004;2022-08-02T12:10:12;3.33;;;2.00;;
3259;SDS011;22469;48.150;14.004;2022-08-02T12:12:52;2.03;;;1.93;;
3259;SDS011;22469;48.150;14.004;2022-08-02T12:15:29;2.03;;;1.93;;
3259;SDS011;22469;48.150;14.004;2022-08-02T12:18:00;2.00;;;1.90;;
3259;SDS011;22469;48.150;14.004;2022-08-02T12:20:46;2.90;;;2.30;;
3259;SDS011;22469;48.150;14.004;2022-08-02T12:23:13;2.20;;;1.80;;
3259;SDS011;22469;48.150;14.004;2022-08-02T12:25:40;1.97;;;1.87;;
3259;SDS011;22469;48.150;14.004;2022-08-02T12:28:17;1.60;;;1.60;;
3259;SDS011;22469;48.150;14.004;2022-08-02T12:30:49;1.60;;;1.50;;
3259;SDS011;22469;48.150;14.004;2022-08-02T12:33:25;2.13;;;2.03;;
3259;SDS011;22469;48.150;14.004;2022-08-02T12:36:13;2.10;;;2.00;;
3259;SDS011;22469;48.150;14.004;2022-08-02T12:38:55;1.60;;;1.50;;
3259;SDS011;22469;48.150;14.004;2022-08-02T12:41:25;1.73;;;1.73;;
3259;SDS011;22469;48.150;14.004;2022-08-02T12:43:57;1.63;;;1.50;;
3259;SDS011;22469;48.150;14.004;2022-08-02T12:46:25;1.80;;;1.70;;
3259;SDS011;22469;48.150;14.004;2022-08-02T12:48:52;2.20;;;1.70;;
3259;SDS011;22469;48.150;14.004;2022-08-02T12:51:40;1.70;;;1.70;;
3259;SDS011;22469;48.150;14.004;2022-08-02T12:54:25;1.80;;;1.70;;
3259;SDS011;22469;48.150;14.004;2022-08-02T12:57:11;2.13;;;2.03;;
3259;SDS011;22469;48.150;14.004;2022-08-02T12:59:41;1.77;;;1.67;;
3259;SDS011;22469;48.150;14.004;2022-08-02T13:02:10;1.70;;;1.60;;
3259;SDS011;22469;48.150;14.004;2022-08-02T13:04:40;2.10;;;1.90;;
3259;SDS011;22469;48.150;14.004;2022-08-02T13:07:16;1.90;;;1.90;;
3259;SDS011;22469;48.150;14.004;2022-08-02T13:09:45;1.60;;;1.60;;
3259;SDS011;22469;48.150;14.004;2022-08-02T13:12:14;2.00;;;1.90;;
3259;SDS011;22469;48.150;14.004;2022-08-02T13:14:42;5.20;;;2.20;;
3259;SDS011;22469;48.150;14.004;2022-08-02T13:17:10;2.20;;;2.10;;
3259;SDS011;22469;48.150;14.004;2022-08-02T13:19:37;1.70;;;1.70;;
3259;SDS011;22469;48.150;14.004;2022-08-02T13:22:06;1.80;;;1.70;;
3259;SDS011;22469;48.150;14.004;2022-08-02T13:24:36;1.70;;;1.60;;
3259;SDS011;22469;48.150;14.004;2022-08-02T13:27:22;1.90;;;1.80;;
3259;SDS011;22469;48.150;14.004;2022-08-02T13:29:52;2.00;;;1.90;;
3259;SDS011;22469;48.150;14.004;2022-08-02T13:32:21;1.83;;;1.73;;
3259;SDS011;22469;48.150;14.004;2022-08-02T13:34:49;1.77;;;1.63;;
3259;SDS011;22469;48.150;14.004;2022-08-02T13:37:17;1.47;;;1.47;;
3259;SDS011;22469;48.150;14.004;2022-08-02T13:39:44;1.57;;;1.47;;
3259;SDS011;22469;48.150;14.004;2022-08-02T13:42:31;1.83;;;1.73;;
3259;SDS011;22469;48.150;14.004;2022-08-02T13:44:58;1.60;;;1.60;;
3259;SDS011;22469;48.150;14.004;2022-08-02T13:47:37;2.00;;;1.80;;
3259;SDS011;22469;48.150;14.004;2022-08-02T13:50:26;3.27;;;1.60;;
3259;SDS011;22469;48.150;14.004;2022-08-02T13:52:54;2.37;;;1.80;;
3259;SDS011;22469;48.150;14.004;2022-08-02T13:55:21;4.17;;;1.40;;
3259;SDS011;22469;48.150;14.004;2022-08-02T13:57:48;4.70;;;2.00;;
3259;SDS011;22469;48.150;14.004;2022-08-02T14:00:19;1.70;;;1.60;;
3259;SDS011;22469;48.150;14.004;2022-08-02T14:03:01;2.00;;;1.90;;
3259;SDS011;22469;48.150;14.004;2022-08-02T14:05:36;1.90;;;1.80;;
3259;SDS011;22469;48.150;14.004;2022-08-02T14:08:14;1.90;;;1.80;;
3259;SDS011;22469;48.150;14.004;2022-08-02T14:10:44;1.80;;;1.80;;
3259;SDS011;22469;48.150;14.004;2022-08-02T14:13:13;1.60;;;1.60;;
3259;SDS011;22469;48.150;14.004;2022-08-02T14:15:41;1.47;;;1.47;;
3259;SDS011;22469;48.150;14.004;2022-08-02T14:18:08;1.73;;;1.63;;
3259;SDS011;22469;48.150;14.004;2022-08-02T14:20:35;1.40;;;1.40;;
3259;SDS011;22469;48.150;14.004;2022-08-02T14:23:02;1.70;;;1.50;;
3259;SDS011;22469;48.150;14.004;2022-08-02T14:25:29;1.50;;;1.40;;
3259;SDS011;22469;48.150;14.004;2022-08-02T14:27:58;1.50;;;1.40;;
3259;SDS011;22469;48.150;14.004;2022-08-02T14:30:25;1.40;;;1.30;;
3259;SDS011;22469;48.150;14.004;2022-08-02T14:32:52;1.50;;;1.50;;
3259;SDS011;22469;48.150;14.004;2022-08-02T14:35:19;1.60;;;1.60;;
3259;SDS011;22469;48.150;14.004;2022-08-02T14:37:46;2.67;;;1.40;;
3259;SDS011;22469;48.150;14.004;2022-08-02T14:40:13;1.50;;;1.50;;
3259;SDS011;22469;48.150;14.004;2022-08-02T14:42:57;1.70;;;1.70;;
3259;SDS011;22469;48.150;14.004;2022-08-02T14:45:26;1.47;;;1.47;;
3259;SDS011;22469;48.150;14.004;2022-08-02T14:48:07;1.63;;;1.53;;
3259;SDS011;22469;48.150;14.004;2022-08-02T14:50:36;1.40;;;1.40;;
3259;SDS011;22469;48.150;14.004;2022-08-02T14:53:03;1.30;;;1.30;;
3259;SDS011;22469;48.150;14.004;2022-08-02T14:55:30;1.23;;;1.23;;
3259;SDS011;22469;48.150;14.004;2022-08-02T14:57:58;1.53;;;1.40;;
3259;SDS011;22469;48.150;14.004;2022-08-02T15:00:25;1.60;;;1.60;;
3259;SDS011;22469;48.150;14.004;2022-08-02T15:02:54;1.63;;;1.60;;
3259;SDS011;22469;48.150;14.004;2022-08-02T15:05:22;1.40;;;1.40;;
3259;SDS011;22469;48.150;14.004;2022-08-02T15:07:49;1.63;;;1.53;;
3259;SDS011;22469;48.150;14.004;2022-08-02T15:10:16;1.87;;;1.40;;
3259;SDS011;22469;48.150;14.004;2022-08-02T15:12:44;1.70;;;1.60;;
3259;SDS011;22469;48.150;14.004;2022-08-02T15:15:11;1.70;;;1.60;;
3259;SDS011;22469;48.150;14.004;2022-08-02T15:17:38;1.47;;;1.37;;
3259;SDS011;22469;48.150;14.004;2022-08-02T15:20:05;1.33;;;1.33;;
3259;SDS011;22469;48.150;14.004;2022-08-02T15:22:51;1.40;;;1.40;;
3259;SDS011;22469;48.150;14.004;2022-08-02T15:25:18;1.30;;;1.30;;
3259;SDS011;22469;48.150;14.004;2022-08-02T15:27:46;1.60;;;1.50;;
3259;SDS011;22469;48.150;14.004;2022-08-02T15:30:13;1.50;;;1.33;;
3259;SDS011;22469;48.150;14.004;2022-08-02T15:32:40;1.70;;;1.60;;
3259;SDS011;22469;48.150;14.004;2022-08-02T15:35:19;1.50;;;1.50;;
3259;SDS011;22469;48.150;14.004;2022-08-02T15:37:47;1.63;;;1.60;;
3259;SDS011;22469;48.150;14.004;2022-08-02T15:40:14;1.50;;;1.50;;
3259;SDS011;22469;48.150;14.004;2022-08-02T15:42:41;1.60;;;1.50;;
3259;SDS011;22469;48.150;14.004;2022-08-02T15:45:11;1.60;;;1.50;;
3259;SDS011;22469;48.150;14.004;2022-08-02T15:47:41;1.20;;;1.20;;
3259;SDS011;22469;48.150;14.004;2022-08-02T15:50:16;1.70;;;1.60;;
3259;SDS011;22469;48.150;14.004;2022-08-02T15:52:44;1.70;;;1.60;;
3259;SDS011;22469;48.150;14.004;2022-08-02T15:55:11;1.50;;;1.40;;
3259;SDS011;22469;48.150;14.004;2022-08-02T15:57:39;1.67;;;1.57;;
3259;SDS011;22469;48.150;14.004;2022-08-02T16:00:06;1.50;;;1.50;;
3259;SDS011;22469;48.150;14.004;2022-08-02T16:02:43;1.30;;;1.30;;
3259;SDS011;22469;48.150;14.004;2022-08-02T16:05:13;1.53;;;1.53;;